createdAt,value
2019-05-07T00:02:04.133Z,54.98
2019-05-07T00:04:39.387Z,55.74
2019-05-07T00:07:14.624Z,56.29
2019-05-07T00:09:48.849Z,56.51
2019-05-07T00:12:26.445Z,56.93
2019-05-07T00:15:04.549Z,56.98
2019-05-07T00:17:38.190Z,57.09
2019-05-07T00:20:12.832Z,57.00
2019-05-07T00:22:47.162Z,57.40
2019-05-07T00:25:22.860Z,57.94
2019-05-07T00:27:56.463Z,58.09
2019-05-07T00:30:30.370Z,58.12
2019-05-07T00:33:04.282Z,58.65
2019-05-07T00:35:44.793Z,58.70
2019-05-07T00:38:22.414Z,58.44
2019-05-07T00:41:17.643Z,58.73
2019-05-07T00:43:53.791Z,58.58
2019-05-07T00:46:32.187Z,58.24
2019-05-07T00:49:06.205Z,58.96
2019-05-07T00:51:42.391Z,58.86
2019-05-07T00:54:16.773Z,59.39
2019-05-07T00:56:52.121Z,59.27
2019-05-07T00:59:26.469Z,59.06
2019-05-07T01:02:02.233Z,58.83
2019-05-07T01:04:36.034Z,58.76
2019-05-07T01:07:12.097Z,58.80
2019-05-07T01:14:35.428Z,58.76
2019-05-07T01:17:09.835Z,58.97
2019-05-07T01:19:43.833Z,59.19
2019-05-07T01:22:17.613Z,59.01
2019-05-07T01:24:53.253Z,59.49
2019-05-07T01:27:29.215Z,59.82
2019-05-07T01:30:05.076Z,59.98
2019-05-07T01:36:13.090Z,60.01
2019-05-07T01:38:54.848Z,60.43
2019-05-07T01:41:52.417Z,60.28
2019-05-07T01:44:26.949Z,60.71
2019-05-07T01:47:03.012Z,60.78
2019-05-07T01:49:38.494Z,60.56
2019-05-07T01:52:13.475Z,60.77
2019-05-07T01:54:52.249Z,60.94
2019-05-07T01:57:27.444Z,60.78
2019-05-07T02:00:02.799Z,60.59
2019-05-07T02:02:49.236Z,61.27
2019-05-07T02:05:42.278Z,61.35
2019-05-07T02:08:22.250Z,61.69
2019-05-07T02:11:02.090Z,61.70
2019-05-07T02:13:36.667Z,61.71
2019-05-07T02:16:12.510Z,61.73
2019-05-07T02:18:47.805Z,61.69
2019-05-07T02:21:22.137Z,61.83
2019-05-07T02:23:56.417Z,62.23
2019-05-07T02:26:32.133Z,62.25
2019-05-07T02:29:06.638Z,62.33
2019-05-07T02:31:43.753Z,62.33
2019-05-07T02:34:49.449Z,62.34
2019-05-07T02:41:15.792Z,62.58
2019-05-07T02:43:50.060Z,62.31
2019-05-07T02:49:37.486Z,62.93
2019-05-07T02:52:22.977Z,62.86
2019-05-07T02:55:04.238Z,62.78
2019-05-07T02:57:39.366Z,63.15
2019-05-07T03:00:16.789Z,63.30
2019-05-07T03:02:52.853Z,63.42
2019-05-07T03:05:54.649Z,63.69
2019-05-07T03:08:35.928Z,63.73
2019-05-07T03:11:14.701Z,63.59
2019-05-07T03:13:53.499Z,63.89
2019-05-07T03:16:39.899Z,63.92
2019-05-07T03:19:13.582Z,63.91
2019-05-07T03:21:55.383Z,63.61
2019-05-07T03:24:57.508Z,63.48
2019-05-07T03:27:35.258Z,63.48
2019-05-07T03:30:35.554Z,63.46
2019-05-07T03:33:26.504Z,63.68
2019-05-07T03:36:09.495Z,63.67
2019-05-07T03:38:53.670Z,64.05
2019-05-07T03:41:29.762Z,63.91
2019-05-07T03:44:16.164Z,63.76
2019-05-07T03:47:09.717Z,63.62
2019-05-07T03:50:04.745Z,63.92
2019-05-07T03:52:46.676Z,64.18
2019-05-07T03:55:23.389Z,64.27
2019-05-07T03:57:58.333Z,64.35
2019-05-07T04:00:33.433Z,64.85
2019-05-07T04:03:12.728Z,64.75
2019-05-07T04:05:47.518Z,64.79
2019-05-07T04:08:23.599Z,64.68
2019-05-07T04:10:59.208Z,64.78
2019-05-07T04:13:34.057Z,64.81
2019-05-07T04:16:08.231Z,64.72
2019-05-07T04:34:17.489Z,64.69
2019-05-07T04:36:53.454Z,64.88
2019-05-07T04:39:33.501Z,64.93
2019-05-07T04:42:07.849Z,64.90
2019-05-07T04:44:43.782Z,64.81
2019-05-07T04:48:14.119Z,64.94
2019-05-07T04:50:58.099Z,64.98
2019-05-07T04:53:33.722Z,64.91
2019-05-07T04:56:07.450Z,64.55
2019-05-07T04:58:53.048Z,64.12
2019-05-07T05:01:32.677Z,63.86
2019-05-07T05:04:24.432Z,63.68
2019-05-07T05:06:52.877Z,63.37
2019-05-07T05:09:36.705Z,62.94
2019-05-07T05:12:13.023Z,63.21
2019-05-07T05:14:52.409Z,62.48
2019-05-07T05:17:27.147Z,61.81
2019-05-07T05:20:03.653Z,61.61
2019-05-07T05:23:02.447Z,61.47
2019-05-07T05:25:33.718Z,61.73
2019-05-07T05:28:07.674Z,62.27
2019-05-07T05:30:44.381Z,62.01
2019-05-07T05:33:18.387Z,62.11
2019-05-07T05:35:52.663Z,61.98
2019-05-07T05:38:42.357Z,62.42
2019-05-07T05:41:19.592Z,62.45
2019-05-07T05:44:19.614Z,62.69
2019-05-07T05:54:27.872Z,62.25
2019-05-07T05:57:23.152Z,62.77
2019-05-07T06:07:08.795Z,62.46
2019-05-07T06:10:02.535Z,62.35
2019-05-07T06:13:18.287Z,62.03
2019-05-07T06:16:18.034Z,61.41
2019-05-07T06:22:25.780Z,59.81
2019-05-07T06:25:03.791Z,59.54
2019-05-07T06:27:38.266Z,59.84
2019-05-07T06:30:13.360Z,60.30
2019-05-07T06:32:47.193Z,59.03
2019-05-07T06:35:22.968Z,59.26
2019-05-07T06:37:58.782Z,59.49
2019-05-07T06:41:12.056Z,59.18
2019-05-07T06:44:05.553Z,58.81
2019-05-07T06:46:41.949Z,58.52
2019-05-07T06:49:15.867Z,58.47
2019-05-07T06:51:49.757Z,58.31
2019-05-07T06:54:23.626Z,57.83
2019-05-07T06:56:57.449Z,57.87
2019-05-07T06:59:38.418Z,58.13
2019-05-07T07:02:29.513Z,58.32
2019-05-07T07:05:25.364Z,58.07
2019-05-07T07:08:02.590Z,58.14
2019-05-07T07:10:56.496Z,57.15
2019-05-07T07:13:33.851Z,56.07
2019-05-07T07:16:12.574Z,55.24
2019-05-07T07:18:51.860Z,54.53
2019-05-07T07:21:22.029Z,51.80
2019-05-07T07:23:56.965Z,51.44
2019-05-07T07:26:32.756Z,50.65
2019-05-07T07:29:07.532Z,50.07
2019-05-07T07:32:06.071Z,50.44
2019-05-07T07:34:46.589Z,49.26
2019-05-07T07:37:37.461Z,47.74
2019-05-07T07:40:19.643Z,47.09
2019-05-07T07:42:53.493Z,46.42
2019-05-07T07:45:27.222Z,45.49
2019-05-07T07:48:02.274Z,46.37
2019-05-07T07:50:36.324Z,45.73
2019-05-07T07:53:10.143Z,45.11
2019-05-07T07:56:02.903Z,46.80
2019-05-07T07:58:42.519Z,46.18
2019-05-07T08:01:28.742Z,46.18
2019-05-07T08:04:02.929Z,44.81
2019-05-07T08:06:38.818Z,42.33
2019-05-07T08:09:13.046Z,42.84
2019-05-07T08:11:46.868Z,41.69
2019-05-07T08:14:21.975Z,41.50
2019-05-07T08:16:55.987Z,42.01
2019-05-07T08:19:29.675Z,43.00
2019-05-07T08:22:03.335Z,43.29
2019-05-07T08:24:36.997Z,44.02
2019-05-07T08:27:12.846Z,44.06
2019-05-07T08:29:46.979Z,43.81
2019-05-07T08:32:36.072Z,44.07
2019-05-07T08:35:35.257Z,44.83
2019-05-07T08:38:09.065Z,44.32
2019-05-07T08:40:42.841Z,44.64
2019-05-07T08:43:16.518Z,44.33
2019-05-07T08:46:12.086Z,44.27
2019-05-07T08:48:48.505Z,44.44
2019-05-07T08:51:22.445Z,43.40
2019-05-07T08:54:14.756Z,43.64
2019-05-07T08:56:48.403Z,43.23
2019-05-07T08:59:22.402Z,44.15
2019-05-07T09:01:56.173Z,42.97
2019-05-07T09:04:29.951Z,42.06
2019-05-07T09:07:03.674Z,42.87
2019-05-07T09:09:37.335Z,43.52
2019-05-07T09:12:12.381Z,43.29
2019-05-07T09:14:46.525Z,43.90
2019-05-07T09:17:22.777Z,43.35
2019-05-07T09:19:57.257Z,41.87
2019-05-07T09:22:32.334Z,42.66
2019-05-07T09:25:06.950Z,41.93
2019-05-07T09:27:45.953Z,43.75
2019-05-07T09:30:45.571Z,42.80
2019-05-07T09:33:42.290Z,41.91
2019-05-07T09:36:32.139Z,41.82
2019-05-07T09:39:06.984Z,41.96
2019-05-07T09:41:41.797Z,40.16
2019-05-07T09:44:15.567Z,41.29
2019-05-07T09:46:49.382Z,40.53
2019-05-07T09:49:23.034Z,39.71
2019-05-07T09:51:56.613Z,39.78
2019-05-07T09:54:32.140Z,39.90
2019-05-07T09:57:05.537Z,40.15
2019-05-07T09:59:39.193Z,40.11
2019-05-07T10:02:13.068Z,39.40
2019-05-07T10:04:46.961Z,40.22
2019-05-07T10:07:22.315Z,38.35
2019-05-07T10:09:56.771Z,38.99
2019-05-07T10:12:38.160Z,39.23
2019-05-07T10:15:12.401Z,39.50
2019-05-07T10:17:56.830Z,38.83
2019-05-07T10:20:32.553Z,37.79
2019-05-07T10:23:07.642Z,38.58
2019-05-07T10:25:41.385Z,39.42
2019-05-07T10:28:15.179Z,38.74
2019-05-07T10:30:49.363Z,36.71
2019-05-07T10:33:23.969Z,35.62
2019-05-07T10:35:57.925Z,36.37
2019-05-07T10:38:32.120Z,37.60
2019-05-07T10:41:06.072Z,35.84
2019-05-07T10:43:40.086Z,36.37
2019-05-07T10:46:35.987Z,37.25
2019-05-07T10:49:33.233Z,36.71
2019-05-07T10:52:07.581Z,35.32
2019-05-07T10:54:59.039Z,36.05
2019-05-07T10:57:26.873Z,36.17
2019-05-07T11:00:03.018Z,34.25
2019-05-07T11:02:39.280Z,34.04
2019-05-07T11:05:13.375Z,35.87
2019-05-07T11:07:47.080Z,35.19
2019-05-07T11:10:21.947Z,34.99
2019-05-07T11:12:55.743Z,33.98
2019-05-07T11:15:32.557Z,35.71
2019-05-07T11:18:22.882Z,34.68
2019-05-07T11:21:00.248Z,33.44
2019-05-07T11:23:36.108Z,32.80
2019-05-07T11:26:11.814Z,32.21
2019-05-07T11:28:45.600Z,33.55
2019-05-07T11:31:19.574Z,32.31
2019-05-07T11:33:53.585Z,33.14
2019-05-07T11:36:29.114Z,32.67
2019-05-07T11:52:15.718Z,31.09
2019-05-07T11:55:43.791Z,31.12
2019-05-07T12:02:22.783Z,30.76
2019-05-07T12:04:57.045Z,29.62
2019-05-07T12:07:33.106Z,28.12
2019-05-07T12:10:15.862Z,31.06
2019-05-07T12:12:49.723Z,30.49
2019-05-07T12:15:24.162Z,29.62
2019-05-07T12:17:58.016Z,31.18
2019-05-07T12:20:39.225Z,28.78
2019-05-07T12:23:13.144Z,28.66
2019-05-07T12:25:48.733Z,29.02
2019-05-07T12:28:23.476Z,28.36
2019-05-07T12:31:07.678Z,28.87
2019-05-07T12:34:02.567Z,28.76
2019-05-07T12:36:36.543Z,28.51
2019-05-07T12:39:12.740Z,29.69
2019-05-07T12:41:46.522Z,29.29
2019-05-07T12:44:22.044Z,29.07
2019-05-07T12:46:55.245Z,28.65
2019-05-07T12:49:28.751Z,28.56
2019-05-07T12:52:32.049Z,28.23
2019-05-07T12:55:20.381Z,28.09
2019-05-07T12:57:54.000Z,27.43
2019-05-07T13:00:47.370Z,27.34
2019-05-07T13:03:34.878Z,28.33
2019-05-07T13:06:08.460Z,28.86
2019-05-07T13:08:42.119Z,29.70
2019-05-07T13:11:15.864Z,29.15
2019-05-07T13:13:49.623Z,29.71
2019-05-07T13:16:23.187Z,29.54
2019-05-07T13:18:56.934Z,29.24
2019-05-07T13:21:31.991Z,30.83
2019-05-07T13:24:05.917Z,29.90
2019-05-07T13:26:39.589Z,29.63
2019-05-07T13:29:15.102Z,29.72
2019-05-07T13:31:53.921Z,28.71
2019-05-07T13:34:25.817Z,29.60
2019-05-07T13:37:03.967Z,27.89
2019-05-07T13:39:42.989Z,29.56
2019-05-07T13:42:41.919Z,28.28
2019-05-07T13:45:25.323Z,29.11
2019-05-07T13:48:07.422Z,30.52
2019-05-07T13:50:42.056Z,30.99
2019-05-07T13:53:15.889Z,30.00
2019-05-07T13:55:50.243Z,29.93
2019-05-07T13:58:24.444Z,30.69
2019-05-07T14:01:16.975Z,30.39
2019-05-07T14:03:51.058Z,29.26
2019-05-07T14:06:42.955Z,29.70
2019-05-07T14:09:23.902Z,29.41
2019-05-07T14:11:56.759Z,29.92
2019-05-07T14:14:34.169Z,26.97
2019-05-07T14:17:06.917Z,27.93
2019-05-07T14:19:42.170Z,29.30
2019-05-07T14:22:19.016Z,28.74
2019-05-07T14:24:53.082Z,28.61
2019-05-07T14:27:27.218Z,28.20
2019-05-07T14:30:02.677Z,28.51
2019-05-07T14:32:55.815Z,28.60
2019-05-07T14:35:45.652Z,29.09
2019-05-07T14:38:33.658Z,29.45
2019-05-07T14:41:08.362Z,29.63
2019-05-07T14:43:47.288Z,29.56
2019-05-07T14:46:21.404Z,30.37
2019-05-07T14:48:55.632Z,30.45
2019-05-07T14:51:54.081Z,29.79
2019-05-07T14:54:32.267Z,29.96
2019-05-07T14:57:05.615Z,30.57
2019-05-07T14:59:39.532Z,29.92
2019-05-07T15:02:13.935Z,30.72
2019-05-07T15:04:47.929Z,30.40
2019-05-07T15:07:22.635Z,29.97
2019-05-07T15:09:56.731Z,29.54
2019-05-07T15:12:30.354Z,29.73
2019-05-07T15:15:03.963Z,29.67
2019-05-07T15:17:46.931Z,30.87
2019-05-07T15:20:22.537Z,30.55
2019-05-07T15:23:02.662Z,32.09
2019-05-07T15:25:40.308Z,31.33
2019-05-07T15:28:13.943Z,31.64
2019-05-07T15:30:56.736Z,32.26
2019-05-07T15:33:32.294Z,31.68
2019-05-07T15:36:06.774Z,31.51
2019-05-07T15:38:42.908Z,31.11
2019-05-07T15:41:16.790Z,30.94
2019-05-07T15:43:52.157Z,31.78
2019-05-07T15:46:26.160Z,31.60
2019-05-07T15:49:01.798Z,31.92
2019-05-07T15:51:35.493Z,31.93
2019-05-07T15:54:09.267Z,31.53
2019-05-07T15:56:43.012Z,31.32
2019-05-07T15:59:25.406Z,30.35
2019-05-07T16:02:07.933Z,31.65
2019-05-07T16:04:44.915Z,30.71
2019-05-07T16:07:22.462Z,31.13
2019-05-07T16:09:55.791Z,30.93
2019-05-07T16:12:31.831Z,31.07
2019-05-07T16:15:05.129Z,31.49
2019-05-07T16:17:42.903Z,32.06
2019-05-07T16:20:17.458Z,32.51
2019-05-07T16:22:55.114Z,31.16
2019-05-07T16:25:28.830Z,30.95
2019-05-07T16:28:04.855Z,31.67
2019-05-07T16:30:38.634Z,32.65
2019-05-07T16:33:12.926Z,34.30
2019-05-07T16:35:46.854Z,35.04
2019-05-07T16:38:22.120Z,34.89
2019-05-07T16:40:55.777Z,35.31
2019-05-07T16:43:29.510Z,35.40
2019-05-07T16:46:03.210Z,35.62
2019-05-07T16:48:38.958Z,35.99
2019-05-07T16:51:13.735Z,36.40
2019-05-07T16:53:52.416Z,36.66
2019-05-07T16:56:26.257Z,37.55
2019-05-07T16:59:08.898Z,37.54
2019-05-07T17:01:43.048Z,37.39
2019-05-07T17:04:17.002Z,37.48
2019-05-07T17:06:52.194Z,37.26
2019-05-07T17:09:27.518Z,37.51
2019-05-07T17:12:03.361Z,38.25
2019-05-07T17:14:37.229Z,38.60
2019-05-07T17:17:12.079Z,38.65
2019-05-07T17:19:52.047Z,39.38
2019-05-07T17:22:22.910Z,39.60
2019-05-07T17:24:56.625Z,40.63
2019-05-07T17:27:32.171Z,40.68
2019-05-07T17:30:06.465Z,42.67
2019-05-07T17:32:41.984Z,42.38
2019-05-07T17:35:15.950Z,42.80
2019-05-07T17:37:51.855Z,41.47
2019-05-07T17:40:26.933Z,42.48
2019-05-07T17:43:15.494Z,43.07
2019-05-07T17:45:49.015Z,43.73
2019-05-07T17:48:25.231Z,41.83
2019-05-07T17:51:23.629Z,44.18
2019-05-07T17:54:00.365Z,42.15
2019-05-07T17:56:35.828Z,42.68
2019-05-07T17:59:20.461Z,42.35
2019-05-07T18:02:12.873Z,44.19
2019-05-07T18:04:51.487Z,42.29
2019-05-07T18:07:24.331Z,43.42
2019-05-07T18:10:02.402Z,42.87
2019-05-07T18:12:38.363Z,42.83
2019-05-07T18:15:14.581Z,43.12
2019-05-07T18:17:55.335Z,42.86
2019-05-07T18:20:29.304Z,43.24
2019-05-07T18:23:08.665Z,43.53
2019-05-07T18:25:46.276Z,43.35
2019-05-07T18:28:26.009Z,43.59
2019-05-07T18:31:02.068Z,44.75
2019-05-07T18:33:52.474Z,44.20
2019-05-07T18:36:28.610Z,43.41
2019-05-07T18:39:02.478Z,43.54
2019-05-07T18:41:37.934Z,43.75
2019-05-07T19:30:12.549Z,46.82
2019-05-07T19:32:46.547Z,47.14
2019-05-07T19:35:22.564Z,47.93
2019-05-07T19:37:56.020Z,48.56
2019-05-07T19:40:32.467Z,48.77
2019-05-07T19:43:06.640Z,48.77
2019-05-07T19:45:41.871Z,49.23
2019-05-07T19:48:15.824Z,49.43
2019-05-07T19:50:49.657Z,49.36
2019-05-07T19:53:23.724Z,49.55
2019-05-07T19:56:15.974Z,50.16
2019-05-07T19:58:52.635Z,50.77
2019-05-07T20:01:34.055Z,51.36
2019-05-07T20:04:07.968Z,50.72
2019-05-07T20:06:42.917Z,51.50
2019-05-07T20:09:20.249Z,51.67
2019-05-07T20:11:59.175Z,52.00
2019-05-07T20:14:38.289Z,51.26
2019-05-07T20:17:17.245Z,51.61
2019-05-07T20:19:52.713Z,51.95
2019-05-07T20:22:35.387Z,52.60
2019-05-07T20:25:19.093Z,52.72
2019-05-07T20:27:53.459Z,52.92
2019-05-07T20:30:28.292Z,52.59
2019-05-07T20:33:03.096Z,53.39
2019-05-07T20:35:39.343Z,53.25
2019-05-07T20:38:13.552Z,54.11
2019-05-07T20:40:48.566Z,53.84
2019-05-07T20:43:23.085Z,54.00
2019-05-07T20:45:57.183Z,54.71
2019-05-07T20:48:32.444Z,54.49
2019-05-07T20:51:08.181Z,54.92
2019-05-07T20:54:00.412Z,54.87
2019-05-07T20:56:37.393Z,55.01
2019-05-07T20:59:14.375Z,54.84
2019-05-07T21:01:53.558Z,55.18
2019-05-07T21:04:33.253Z,55.27
2019-05-07T21:07:11.733Z,55.54
2019-05-07T21:09:47.507Z,55.75
2019-05-07T21:12:25.779Z,55.70
2019-05-07T21:15:00.270Z,55.67
2019-05-07T21:17:35.056Z,55.67
2019-05-07T21:20:12.130Z,55.33
2019-05-07T21:22:46.100Z,55.95
2019-05-07T21:25:20.155Z,56.06
2019-05-07T21:27:57.075Z,55.99
2019-05-07T21:30:32.766Z,56.48
2019-05-07T21:33:08.673Z,57.09
2019-05-07T21:35:43.004Z,57.65
2019-05-07T21:38:22.358Z,57.70
2019-05-07T21:40:56.210Z,58.64
2019-05-07T21:43:32.496Z,58.96
2019-05-07T21:46:07.505Z,58.39
2019-05-07T21:48:42.370Z,57.94
2019-05-07T21:51:18.680Z,58.18
2019-05-07T21:56:52.280Z,58.64
2019-05-07T21:59:28.596Z,58.69
2019-05-07T22:02:06.476Z,58.92
2019-05-07T22:04:42.139Z,59.40
2019-05-07T22:07:17.972Z,59.27
2019-05-07T22:09:54.347Z,59.90
2019-05-07T22:13:28.357Z,60.19
2019-05-07T22:16:38.532Z,60.75
2019-05-07T22:19:13.617Z,61.03
2019-05-07T22:21:47.409Z,60.61
2019-05-07T22:24:22.432Z,60.82
2019-05-07T22:26:56.482Z,61.22
2019-05-07T22:29:30.273Z,61.36
2019-05-07T22:35:34.132Z,60.85
2019-05-07T22:38:12.258Z,60.76
2019-05-07T22:40:50.690Z,61.09
2019-05-07T22:43:26.148Z,60.74
2019-05-07T22:45:59.964Z,60.39
2019-05-07T22:48:36.110Z,60.30
2019-05-07T22:51:11.987Z,60.33
2019-05-07T22:53:45.245Z,60.04
2019-05-07T22:56:31.995Z,60.05
2019-05-07T22:58:57.851Z,60.09
2019-05-07T23:01:32.042Z,60.11
2019-05-07T23:04:07.164Z,60.76
2019-05-07T23:06:41.553Z,60.98
2019-05-07T23:09:15.868Z,61.04
2019-05-07T23:11:52.608Z,60.49
2019-05-07T23:14:34.549Z,60.61
2019-05-07T23:17:08.483Z,60.54
2019-05-07T23:19:42.430Z,60.31
2019-05-07T23:22:16.207Z,60.76
2019-05-07T23:24:51.986Z,60.99
2019-05-07T23:27:27.742Z,60.85
2019-05-07T23:30:02.609Z,61.33
2019-05-07T23:32:43.664Z,61.01
2019-05-07T23:35:17.733Z,61.14
2019-05-07T23:37:52.960Z,60.79
2019-05-07T23:40:45.719Z,60.63
2019-05-07T23:43:19.735Z,60.52
2019-05-07T23:45:54.280Z,60.37
2019-05-07T23:48:28.076Z,60.70
2019-05-07T23:51:02.267Z,60.56
2019-05-07T23:53:36.288Z,61.08
2019-05-07T23:56:13.081Z,61.26
2019-05-07T23:58:59.162Z,60.77
